Time;durP1;ratioP1;P1;durP2;ratioP2;P2;SDS_P1;SDS_P2;PMS_P1;PMS_P2;Temp;Humidity;BMP_temperature;BMP_pressure;BME280_temperature;BME280_humidity;BME280_pressure;Samples;Min_cycle;Max_cycle;Signal;HPM_P1;HPM_P2
2023/08/18 00:00:12;;;;;;;;;20.00;20.00;;;;;23.39;61.73;101187.91;5082479;27;48034;-43
2023/08/18 00:02:39;;;;;;;;;27.00;24.67;;;;;23.37;62.22;101184.47;5092588;27;45496;-45
2023/08/18 00:05:05;;;;;;;;;25.67;23.00;;;;;23.33;62.41;101176.81;5073255;28;45574;-44
2023/08/18 00:07:30;;;;;;;;;26.33;24.67;;;;;23.30;61.98;101172.53;5086245;27;46179;-45
2023/08/18 00:09:56;;;;;;;;;24.33;19.67;;;;;23.27;62.18;101181.81;5089437;27;55393;-45
2023/08/18 00:12:21;;;;;;;;;23.33;23.00;;;;;23.25;62.49;101172.97;5091774;27;64984;-45
2023/08/18 00:14:46;;;;;;;;;23.67;21.00;;;;;23.22;62.91;101169.69;5087860;27;49258;-46
2023/08/18 00:17:11;;;;;;;;;29.33;26.67;;;;;23.19;63.20;101164.59;5084810;27;73470;-46
2023/08/18 00:19:37;;;;;;;;;28.33;26.33;;;;;23.16;63.61;101173.03;5088404;27;64627;-47
2023/08/18 00:22:02;;;;;;;;;29.00;27.67;;;;;23.13;63.75;101172.28;5096352;27;45232;-47
2023/08/18 00:24:28;;;;;;;;;26.33;26.33;;;;;23.11;63.58;101166.16;5096506;27;45530;-49
2023/08/18 00:26:53;;;;;;;;;26.33;23.33;;;;;23.11;63.66;101174.31;5079159;27;45897;-44
2023/08/18 00:29:18;;;;;;;;;24.33;24.33;;;;;23.12;63.94;101177.88;5096763;27;45334;-46
2023/08/18 00:31:44;;;;;;;;;28.00;25.67;;;;;23.10;63.75;101171.72;5092147;27;45516;-44
2023/08/18 00:34:09;;;;;;;;;29.00;26.33;;;;;23.08;63.89;101168.31;5091450;27;53803;-46
2023/08/18 00:36:34;;;;;;;;;31.33;26.00;;;;;23.04;64.38;101158.78;5072320;27;71659;-44
2023/08/18 00:39:01;;;;;;;;;31.67;28.67;;;;;23.03;64.38;101157.91;5089504;27;45396;-45
2023/08/18 00:41:26;;;;;;;;;29.00;26.67;;;;;23.03;64.59;101157.06;5088099;27;45329;-45
2023/08/18 00:43:52;;;;;;;;;31.67;25.67;;;;;23.02;64.37;101156.19;5075945;27;45453;-45
2023/08/18 00:46:18;;;;;;;;;29.33;26.00;;;;;23.02;64.64;101160.78;5088690;27;69090;-44
2023/08/18 00:48:43;;;;;;;;;27.00;24.67;;;;;23.02;64.21;101160.78;5091894;27;45401;-44
2023/08/18 00:51:09;;;;;;;;;24.00;19.33;;;;;23.02;64.79;101158.06;5090322;27;64653;-44
2023/08/18 00:53:35;;;;;;;;;31.33;27.67;;;;;23.01;64.92;101156.34;5096767;27;45601;-44
2023/08/18 00:56:01;;;;;;;;;28.67;28.00;;;;;22.98;65.07;101149.38;5091037;27;66128;-45
2023/08/18 00:58:26;;;;;;;;;27.67;24.67;;;;;22.96;65.15;101159.53;5095896;27;45424;-45
2023/08/18 01:00:52;;;;;;;;;28.00;24.00;;;;;22.94;65.20;101156.97;5088310;27;67224;-45
2023/08/18 01:03:18;;;;;;;;;24.33;22.67;;;;;22.93;65.53;101148.97;5094760;27;68089;-44
2023/08/18 01:05:43;;;;;;;;;34.00;27.67;;;;;22.93;65.44;101155.25;5081570;27;46004;-44
2023/08/18 01:08:09;;;;;;;;;30.00;23.00;;;;;22.92;65.29;101155.41;5091196;27;45473;-44
2023/08/18 01:10:40;;;;;;;;;31.00;27.00;;;;;22.91;65.61;101154.53;5087005;27;63381;-44
2023/08/18 01:13:28;;;;;;;;;27.00;24.00;;;;;22.90;66.02;101155.53;5073014;27;45372;-43
2023/08/18 01:15:56;;;;;;;;;27.00;25.67;;;;;22.88;65.99;101146.72;5053063;27;47229;-46
2023/08/18 01:18:22;;;;;;;;;26.33;24.33;;;;;22.88;65.63;101153.97;5067568;28;45426;-44
2023/08/18 01:20:48;;;;;;;;;33.33;27.00;;;;;22.86;65.35;101145.16;5087063;27;67001;-45
2023/08/18 01:23:14;;;;;;;;;28.00;26.00;;;;;22.82;66.14;101133.75;5070987;27;45667;-45
2023/08/18 01:25:39;;;;;;;;;32.00;29.00;;;;;22.79;66.42;101139.47;5099739;27;46231;-43
2023/08/18 01:28:06;;;;;;;;;25.67;25.33;;;;;22.77;66.13;101142.31;5088438;27;72440;-43
2023/08/18 01:30:36;;;;;;;;;24.00;24.00;;;;;22.74;66.77;101142.63;5092345;27;45449;-48
2023/08/18 01:33:08;;;;;;;;;27.33;27.33;;;;;22.72;66.38;101138.34;5083389;27;45512;-47
2023/08/18 01:35:34;;;;;;;;;27.00;25.00;;;;;22.71;66.76;101133.91;5096400;27;46610;-48
2023/08/18 01:38:00;;;;;;;;;29.33;29.00;;;;;22.69;66.29;101134.06;5093108;27;45378;-45
2023/08/18 01:40:27;;;;;;;;;32.33;29.67;;;;;22.65;66.72;101131.81;5060475;28;67496;-46
2023/08/18 01:42:52;;;;;;;;;32.33;29.00;;;;;22.61;66.82;101132.09;5080643;27;45507;-45
2023/08/18 01:45:18;;;;;;;;;27.67;26.00;;;;;22.58;67.02;101124.28;5098419;27;72110;-45
2023/08/18 01:47:43;;;;;;;;;26.67;24.00;;;;;22.57;67.27;101127.13;5089253;27;58735;-44
2023/08/18 01:50:09;;;;;;;;;31.67;29.67;;;;;22.55;67.66;101119.13;5088749;27;59994;-44
2023/08/18 01:52:35;;;;;;;;;35.33;28.33;;;;;22.54;67.57;101128.28;5068403;27;45413;-45
2023/08/18 01:55:01;;;;;;;;;28.00;25.00;;;;;22.54;67.79;101130.13;5099910;27;45301;-47
2023/08/18 01:57:26;;;;;;;;;30.33;26.33;;;;;22.52;67.48;101126.72;5091414;27;59426;-46
2023/08/18 01:59:51;;;;;;;;;30.00;29.33;;;;;22.50;67.88;101121.44;5088529;27;45346;-44
2023/08/18 02:02:17;;;;;;;;;34.00;28.00;;;;;22.50;68.21;101117.88;5086239;27;53207;-44
2023/08/18 02:04:42;;;;;;;;;32.33;29.33;;;;;22.49;67.71;101132.41;5090264;27;74188;-43
2023/08/18 02:07:07;;;;;;;;;35.67;29.67;;;;;22.45;68.10;101118.34;5098690;27;71152;-45
2023/08/18 02:09:33;;;;;;;;;28.67;26.33;;;;;22.43;68.56;101126.59;5093014;27;68113;-44
2023/08/18 02:11:59;;;;;;;;;24.67;23.67;;;;;22.42;68.37;101134.88;5090698;27;60900;-45
2023/08/18 02:14:24;;;;;;;;;28.33;27.00;;;;;22.41;68.49;101125.03;5074095;27;46211;-45
2023/08/18 02:16:50;;;;;;;;;28.33;28.33;;;;;22.41;68.42;101116.88;5082823;27;45687;-46
2023/08/18 02:19:15;;;;;;;;;28.33;27.00;;;;;22.40;68.89;101118.75;5075685;27;65984;-45
2023/08/18 02:21:40;;;;;;;;;27.33;25.67;;;;;22.38;68.65;101115.31;5095238;27;67472;-45
2023/08/18 02:24:06;;;;;;;;;31.33;29.33;;;;;22.37;68.87;101112.78;5094130;27;45839;-45
2023/08/18 02:26:31;;;;;;;;;31.00;28.33;;;;;22.35;68.69;101120.19;5095470;27;45312;-44
2023/08/18 02:28:56;;;;;;;;;32.00;29.33;;;;;22.32;69.34;101115.91;5092018;27;46680;-45
2023/08/18 02:31:22;;;;;;;;;31.00;26.67;;;;;22.29;69.08;101121.59;5091471;27;45448;-43
2023/08/18 02:33:47;;;;;;;;;38.67;31.00;;;;;22.26;69.07;101114.63;5093025;27;73951;-45
2023/08/18 02:36:13;;;;;;;;;31.00;27.00;;;;;22.25;69.62;101114.75;5089254;27;45771;-45
2023/08/18 02:38:38;;;;;;;;;39.33;31.33;;;;;22.24;69.34;101111.22;5085709;27;45363;-48
2023/08/18 02:41:04;;;;;;;;;32.67;29.67;;;;;22.21;69.60;101108.78;5095822;27;45377;-46
2023/08/18 02:43:29;;;;;;;;;29.00;27.33;;;;;22.18;69.65;101100.09;5088531;27;46017;-46
2023/08/18 02:45:56;;;;;;;;;29.33;29.00;;;;;22.16;69.94;101100.22;5075726;27;45364;-46
2023/08/18 02:48:21;;;;;;;;;35.00;30.00;;;;;22.14;70.08;101100.38;5074975;27;45288;-43
2023/08/18 02:50:46;;;;;;;;;31.00;28.00;;;;;22.11;69.53;101100.69;5084790;27;45346;-45
2023/08/18 02:53:13;;;;;;;;;32.00;30.00;;;;;22.10;70.30;101104.38;5069529;27;45503;-45
2023/08/18 02:55:39;;;;;;;;;29.00;27.00;;;;;22.08;70.23;101097.41;5085354;27;45402;-45
2023/08/18 02:58:05;;;;;;;;;38.00;32.00;;;;;22.06;69.83;101093.97;5076302;27;45438;-46
2023/08/18 03:00:31;;;;;;;;;34.33;31.00;;;;;22.04;70.87;101096.00;5094381;27;45827;-46
2023/08/18 03:02:57;;;;;;;;;29.67;25.67;;;;;22.03;70.57;101091.56;5082409;27;47244;-45
2023/08/18 03:05:23;;;;;;;;;36.00;29.00;;;;;22.02;70.53;101092.56;5093955;27;45453;-46
2023/08/18 03:07:48;;;;;;;;;36.00;31.00;;;;;22.02;70.94;101089.84;5097790;27;45296;-45
2023/08/18 03:10:13;;;;;;;;;32.00;29.33;;;;;22.02;70.72;101081.72;5085704;27;45677;-45
2023/08/18 03:12:39;;;;;;;;;38.67;32.00;;;;;22.01;71.13;101078.16;5092466;27;45381;-44
2023/08/18 03:15:05;;;;;;;;;36.67;31.00;;;;;22.01;70.97;101074.63;5092702;27;66386;-45
2023/08/18 03:17:31;;;;;;;;;36.67;30.00;;;;;22.02;70.79;101073.59;5088414;27;45359;-45
2023/08/18 03:19:56;;;;;;;;;32.67;30.67;;;;;22.03;70.73;101072.59;5094984;27;45591;-45
2023/08/18 03:22:21;;;;;;;;;34.67;29.33;;;;;22.03;70.88;101069.91;5094113;27;74703;-45
2023/08/18 03:24:47;;;;;;;;;31.00;30.33;;;;;22.03;71.13;101073.47;5097724;27;68933;-44
2023/08/18 03:27:12;;;;;;;;;31.33;30.00;;;;;22.03;71.23;101072.59;5083856;27;47680;-45
2023/08/18 03:29:38;;;;;;;;;39.00;33.00;;;;;21.97;71.75;101068.63;5097122;27;68528;-46
2023/08/18 03:32:04;;;;;;;;;32.00;26.00;;;;;21.91;71.38;101061.94;5101397;27;67189;-44
2023/08/18 03:34:29;;;;;;;;;37.00;28.67;;;;;21.84;71.85;101059.94;5075573;27;45410;-45
2023/08/18 03:36:54;;;;;;;;;30.33;28.33;;;;;21.80;72.17;101062.09;5087654;27;59824;-44
2023/08/18 03:39:20;;;;;;;;;33.00;30.00;;;;;21.77;72.21;101063.25;5095999;27;45448;-44
2023/08/18 03:41:45;;;;;;;;;39.00;31.00;;;;;21.73;72.67;101066.38;5094011;27;69446;-44
2023/08/18 03:44:10;;;;;;;;;38.00;32.33;;;;;21.73;72.85;101060.94;5094232;27;69542;-45
2023/08/18 03:46:35;;;;;;;;;37.00;32.67;;;;;21.71;72.66;101071.09;5098389;27;68034;-43
2023/08/18 03:49:01;;;;;;;;;33.33;31.00;;;;;;;;5090628;27;45448;-45
2023/08/18 03:51:27;;;;;;;;;34.00;30.33;;;;;21.67;72.86;101064.22;5092460;27;45489;-47
2023/08/18 03:53:52;;;;;;;;;31.00;29.67;;;;;21.63;73.18;101060.97;5101152;27;60820;-44
2023/08/18 03:56:17;;;;;;;;;30.33;27.33;;;;;21.62;73.45;101060.09;5097707;27;45330;-47
2023/08/18 03:58:43;;;;;;;;;41.67;31.33;;;;;21.62;73.60;101060.09;5090918;27;45517;-46
2023/08/18 04:01:09;;;;;;;;;37.33;33.00;;;;;21.62;73.34;101061.97;5080672;27;46092;-45
2023/08/18 04:03:36;;;;;;;;;36.33;32.00;;;;;21.61;73.58;101062.94;5099452;27;45473;-46
2023/08/18 04:06:02;;;;;;;;;33.33;30.67;;;;;21.63;73.25;101066.38;5101861;27;45464;-46
2023/08/18 04:08:27;;;;;;;;;36.33;32.67;;;;;21.61;73.54;101062.94;5091777;27;45453;-45
2023/08/18 04:10:53;;;;;;;;;36.67;31.00;;;;;21.60;73.87;101058.53;5088871;27;45895;-43
2023/08/18 04:13:18;;;;;;;;;30.33;29.00;;;;;21.61;74.11;101062.94;5068797;27;72103;-45
2023/08/18 04:15:45;;;;;;;;;37.33;31.33;;;;;21.61;73.49;101062.94;5092095;27;66992;-45
2023/08/18 04:18:10;;;;;;;;;37.00;32.00;;;;;21.62;73.61;101065.50;5095827;27;45391;-44
2023/08/18 04:20:35;;;;;;;;;30.33;27.67;;;;;21.62;73.61;101060.09;5100221;27;70599;-44
2023/08/18 04:23:01;;;;;;;;;36.67;31.33;;;;;21.64;73.79;101062.66;5088410;27;45438;-44
2023/08/18 04:25:26;;;;;;;;;32.33;29.00;;;;;21.62;73.83;101051.97;5093819;27;52801;-44
2023/08/18 04:27:51;;;;;;;;;36.33;32.33;;;;;21.62;73.31;101048.44;5090491;27;69084;-44
2023/08/18 04:30:17;;;;;;;;;32.67;30.00;;;;;21.60;74.00;101050.41;5101292;27;45412;-43
2023/08/18 04:32:42;;;;;;;;;37.00;32.33;;;;;21.60;73.93;101054.00;5096458;27;48206;-45
2023/08/18 04:35:08;;;;;;;;;36.33;30.67;;;;;21.61;74.24;101047.56;5092385;27;57919;-44
2023/08/18 04:37:33;;;;;;;;;38.33;33.00;;;;;21.62;73.76;101051.97;5089178;27;45450;-45
2023/08/18 04:39:58;;;;;;;;;33.00;31.00;;;;;21.61;74.27;101044.00;5089116;27;71346;-43
2023/08/18 04:42:23;;;;;;;;;39.00;31.67;;;;;21.61;74.22;101042.16;5090062;27;57351;-46
2023/08/18 04:44:50;;;;;;;;;32.67;30.33;;;;;21.60;74.22;101051.28;5100352;27;68361;-44
2023/08/18 04:47:16;;;;;;;;;31.00;29.33;;;;;21.58;74.10;101039.75;5086091;27;45594;-45
2023/08/18 04:49:41;;;;;;;;;38.00;32.67;;;;;21.54;74.55;101041.03;5087448;27;47063;-46
2023/08/18 04:52:07;;;;;;;;;39.00;33.00;;;;;21.49;74.61;101033.28;5086906;27;45361;-47
2023/08/18 04:54:33;;;;;;;;;34.00;30.00;;;;;21.48;74.60;101039.72;5079926;27;45430;-45
2023/08/18 04:57:03;;;;;;;;;36.33;32.00;;;;;21.51;74.42;101041.28;5076172;27;59038;-44
2023/08/18 04:59:29;;;;;;;;;35.00;32.67;;;;;21.54;74.68;101041.03;5062377;28;45544;-47
2023/08/18 05:01:54;;;;;;;;;30.33;30.00;;;;;21.55;74.75;101031.03;5081689;27;45519;-44
2023/08/18 05:04:20;;;;;;;;;39.67;33.67;;;;;21.56;74.34;101036.34;5096479;27;45295;-44
2023/08/18 05:06:45;;;;;;;;;33.33;30.00;;;;;21.53;74.62;101035.72;5100545;27;45466;-44
2023/08/18 05:09:11;;;;;;;;;38.33;32.33;;;;;21.54;74.88;101032.91;5099666;27;47800;-46
2023/08/18 05:11:36;;;;;;;;;36.00;32.33;;;;;21.58;73.94;101047.00;5095970;27;66909;-45
2023/08/18 05:14:02;;;;;;;;;36.33;29.67;;;;;21.58;75.18;101053.28;5070514;27;45291;-43
2023/08/18 05:16:27;;;;;;;;;37.00;32.00;;;;;21.56;75.27;101049.88;5085279;27;45425;-45
2023/08/18 05:18:53;;;;;;;;;40.67;32.00;;;;;21.60;74.80;101045.88;5096406;27;47336;-44
2023/08/18 05:21:18;;;;;;;;;43.00;33.67;;;;;21.63;74.58;101039.31;5081317;27;55455;-44
2023/08/18 05:23:43;;;;;;;;;43.00;34.00;;;;;21.67;74.67;101035.31;5099257;27;45512;-44
2023/08/18 05:26:09;;;;;;;;;33.67;30.33;;;;;21.76;74.80;101036.31;5085472;27;64891;-43
2023/08/18 05:28:34;;;;;;;;;33.00;29.33;;;;;21.85;75.03;101030.03;5099576;27;46787;-45
2023/08/18 05:30:59;;;;;;;;;42.33;30.33;;;;;21.95;74.23;101020.06;5088604;27;47563;-45
2023/08/18 05:33:25;;;;;;;;;36.00;32.67;;;;;22.04;73.85;101012.03;5082093;27;45794;-45
2023/08/18 05:35:50;;;;;;;;;42.00;35.00;;;;;22.08;73.61;101014.28;5079240;27;56541;-44
2023/08/18 05:38:16;;;;;;;;;39.00;32.33;;;;;22.13;73.84;101005.72;5078729;27;74116;-48
2023/08/18 05:40:46;;;;;;;;;43.67;34.33;;;;;22.21;72.72;101005.00;5081607;27;45511;-44
2023/08/18 05:43:13;;;;;;;;;32.67;31.33;;;;;22.24;73.03;101015.53;5088682;27;45499;-45
2023/08/18 05:45:39;;;;;;;;;40.33;32.00;;;;;22.28;72.83;101020.50;5064193;27;45318;-45
2023/08/18 05:48:05;;;;;;;;;37.33;32.67;;;;;22.38;72.80;101019.66;5086906;27;45700;-45
2023/08/18 05:50:31;;;;;;;;;37.33;32.33;;;;;22.44;72.79;101028.03;5079188;27;45612;-45
2023/08/18 05:52:57;;;;;;;;;42.33;36.00;;;;;22.53;72.82;101025.41;5099040;27;45398;-44
2023/08/18 05:55:23;;;;;;;;;39.67;30.67;;;;;22.61;72.23;101017.41;5093796;27;45507;-44
2023/08/18 05:57:48;;;;;;;;;34.67;31.67;;;;;22.70;72.35;101012.97;5079683;28;45729;-45
2023/08/18 06:00:14;;;;;;;;;33.67;31.00;;;;;22.82;71.85;101016.31;5091876;27;68414;-48
2023/08/18 06:02:41;;;;;;;;;39.00;32.00;;;;;22.88;72.06;101016.56;5092865;27;45433;-47
2023/08/18 06:05:06;;;;;;;;;38.33;32.33;;;;;22.96;71.78;101011.22;5091994;27;45675;-45
2023/08/18 06:07:32;;;;;;;;;37.33;31.00;;;;;23.08;71.34;101002.88;5088138;27;45342;-44
2023/08/18 06:09:57;;;;;;;;;25.00;22.33;;;;;23.24;70.59;101013.03;5073936;27;70618;-48
2023/08/18 06:12:22;;;;;;;;;38.33;33.33;;;;;23.40;70.06;101006.91;5095389;27;66989;-46
2023/08/18 06:14:48;;;;;;;;;38.67;32.00;;;;;23.57;70.18;101016.06;5098287;27;64158;-45
2023/08/18 06:17:13;;;;;;;;;38.00;32.00;;;;;23.77;69.33;101009.44;5080255;27;71906;-47
2023/08/18 06:19:38;;;;;;;;;36.67;31.00;;;;;23.89;68.73;101010.03;5078957;27;45321;-44
2023/08/18 06:22:04;;;;;;;;;40.00;32.00;;;;;23.92;68.35;101014.31;5083792;27;45406;-49
2023/08/18 06:24:29;;;;;;;;;34.67;29.67;;;;;23.92;68.08;101011.59;5091705;27;66023;-45
2023/08/18 06:26:54;;;;;;;;;30.00;29.00;;;;;23.87;67.74;101011.19;5070911;28;69693;-47
2023/08/18 06:29:20;;;;;;;;;35.67;30.33;;;;;23.87;67.74;100997.63;5078695;27;57663;-44
2023/08/18 06:31:45;;;;;;;;;35.33;31.67;;;;;23.89;68.04;101001.88;5084704;27;45563;-43
2023/08/18 06:34:11;;;;;;;;;43.67;33.67;;;;;24.00;67.84;101005.38;5085432;27;45308;-46
2023/08/18 06:36:36;;;;;;;;;31.00;28.67;;;;;24.10;67.53;100998.81;5082460;27;73429;-44
2023/08/18 06:39:01;;;;;;;;;34.33;31.67;;;;;24.29;66.91;101010.47;5082357;27;66016;-45
2023/08/18 06:41:27;;;;;;;;;39.67;32.67;;;;;24.36;66.62;101014.25;5078552;27;45574;-45
2023/08/18 06:43:52;;;;;;;;;41.67;32.33;;;;;24.60;66.83;101010.78;5085873;27;45457;-44
2023/08/18 06:46:17;;;;;;;;;34.67;31.67;;;;;24.64;66.16;101015.91;5087106;27;45535;-45
2023/08/18 06:48:43;;;;;;;;;36.00;31.00;;;;;24.60;65.83;101012.63;5078487;27;52679;-48
2023/08/18 06:51:08;;;;;;;;;36.67;31.67;;;;;24.58;65.62;101012.81;5088581;27;60927;-45
2023/08/18 06:53:34;;;;;;;;;40.67;32.33;;;;;24.59;65.86;101003.66;5083405;27;70755;-45
2023/08/18 06:56:00;;;;;;;;;37.67;32.00;;;;;24.66;65.77;100997.59;5071272;28;47510;-44
2023/08/18 06:58:26;;;;;;;;;33.67;30.00;;;;;24.69;65.45;101008.13;5078291;27;45350;-46
2023/08/18 07:00:52;;;;;;;;;31.00;27.67;;;;;24.73;65.49;101010.38;5083917;27;45522;-47
2023/08/18 07:03:18;;;;;;;;;32.00;30.33;;;;;24.82;65.15;101008.50;5092237;27;45469;-46
2023/08/18 07:05:43;;;;;;;;;31.67;30.00;;;;;24.95;64.66;101013.47;5096249;27;45565;-44
2023/08/18 07:08:08;;;;;;;;;34.00;32.33;;;;;25.09;64.37;101014.69;5084060;27;45338;-45
2023/08/18 07:10:34;;;;;;;;;42.33;32.67;;;;;25.15;64.52;101019.47;5075330;27;45425;-46
2023/08/18 07:12:59;;;;;;;;;33.00;31.67;;;;;25.23;63.59;101016.75;5093400;27;64839;-48
2023/08/18 07:15:24;;;;;;;;;5.33;5.33;;;;;25.39;63.94;101018.69;5091731;27;66972;-45
2023/08/18 07:17:50;;;;;;;;;32.33;29.33;;;;;26.06;63.66;101011.34;5087669;27;45428;-46
2023/08/18 07:20:15;;;;;;;;;35.00;29.33;;;;;26.22;61.70;100999.56;5082358;27;45957;-47
2023/08/18 07:22:41;;;;;;;;;33.33;28.67;;;;;26.07;61.68;101018.50;5083679;27;45418;-45
2023/08/18 07:25:08;;;;;;;;;36.67;32.00;;;;;25.87;61.21;101010.66;5078061;28;45359;-47
2023/08/18 07:27:33;;;;;;;;;33.33;30.00;;;;;25.68;61.65;101008.31;5087640;27;45417;-47
2023/08/18 07:29:59;;;;;;;;;38.67;31.00;;;;;25.47;62.47;101006.09;5069983;28;45413;-46
2023/08/18 07:32:24;;;;;;;;;37.67;32.33;;;;;25.27;62.36;101014.56;5077642;28;45587;-43
2023/08/18 07:34:49;;;;;;;;;35.33;32.00;;;;;25.13;62.56;101020.66;5092973;27;65835;-44
2023/08/18 07:37:15;;;;;;;;;34.00;31.33;;;;;25.04;63.27;101026.06;5082338;27;45361;-44
2023/08/18 07:39:40;;;;;;;;;35.00;30.33;;;;;24.96;63.79;101022.50;5083277;27;61033;-45
2023/08/18 07:42:06;;;;;;;;;30.00;27.33;;;;;24.87;64.33;101027.06;5084904;27;62577;-48
2023/08/18 07:44:31;;;;;;;;;32.33;30.67;;;;;24.84;64.29;101021.97;5089262;27;46198;-47
2023/08/18 07:46:56;;;;;;;;;30.67;28.33;;;;;24.85;64.84;101034.50;5091099;27;67308;-48
2023/08/18 07:49:22;;;;;;;;;36.67;31.33;;;;;24.88;64.50;101029.59;5089517;27;49071;-47
2023/08/18 07:51:47;;;;;;;;;34.67;30.67;;;;;24.91;64.82;101022.97;5081429;27;55965;-51
2023/08/18 07:54:12;;;;;;;;;35.00;30.67;;;;;24.95;64.93;101024.34;5082903;27;61111;-48
2023/08/18 07:56:38;;;;;;;;;33.33;30.33;;;;;25.03;65.29;101016.22;5090127;27;63424;-52
2023/08/18 07:59:03;;;;;;;;;28.67;26.00;;;;;25.27;64.71;101018.13;5096023;27;45596;-53
2023/08/18 08:01:29;;;;;;;;;31.67;28.67;;;;;25.67;63.92;101022.94;5076790;28;45322;-47
2023/08/18 08:03:55;;;;;;;;;29.67;27.67;;;;;26.91;64.25;101029.81;5084739;27;45485;-48
2023/08/18 08:06:21;;;;;;;;;32.33;29.67;;;;;29.84;59.51;101038.00;5094792;27;45442;-49
2023/08/18 08:08:46;;;;;;;;;36.67;30.33;;;;;31.54;53.92;101028.47;5094361;27;45377;-49
2023/08/18 08:11:12;;;;;;;;;36.00;30.33;;;;;31.83;49.87;101038.25;5086659;27;45460;-44
2023/08/18 08:13:38;;;;;;;;;34.33;30.00;;;;;32.17;50.54;101039.09;5094385;27;46444;-45
2023/08/18 08:16:03;;;;;;;;;34.67;29.00;;;;;33.55;47.48;101034.25;5094846;27;45461;-44
2023/08/18 08:18:29;;;;;;;;;28.33;26.00;;;;;35.89;46.32;101033.31;5084817;27;45505;-46
2023/08/18 08:20:54;;;;;;;;;29.00;26.00;;;;;38.18;43.04;101035.47;5093958;27;45805;-45
2023/08/18 08:23:19;;;;;;;;;29.33;23.00;;;;;39.45;39.70;101036.41;5087881;27;45534;-45
2023/08/18 08:25:47;;;;;;;;;31.33;25.67;;;;;40.23;36.96;101035.03;5087298;27;70259;-45
2023/08/18 08:28:12;;;;;;;;;25.33;24.67;;;;;41.26;34.42;101032.59;5085536;27;45376;-46
2023/08/18 08:30:41;;;;;;;;;28.00;25.00;;;;;42.03;32.77;101034.53;5088795;27;45535;-47
2023/08/18 08:33:08;;;;;;;;;27.00;27.00;;;;;42.44;31.81;101028.00;5091355;27;45497;-45
2023/08/18 08:35:33;;;;;;;;;27.00;26.33;;;;;43.58;30.60;101020.56;5099510;27;45505;-45
2023/08/18 08:37:59;;;;;;;;;20.67;19.67;;;;;44.75;29.96;101016.72;5083146;27;69391;-47
2023/08/18 08:40:26;;;;;;;;;26.00;24.67;;;;;46.19;26.52;101019.00;5085853;27;45347;-50
2023/08/18 08:42:56;;;;;;;;;22.00;21.33;;;;;46.59;26.06;101014.84;5087749;27;46134;-46
2023/08/18 08:45:22;;;;;;;;;22.67;20.67;;;;;46.41;26.52;101006.22;5081431;27;45327;-46
2023/08/18 08:47:48;;;;;;;;;21.00;19.67;;;;;46.52;26.84;101018.06;5067369;27;45558;-46
2023/08/18 08:50:16;;;;;;;;;28.67;22.67;;;;;45.91;26.01;101029.44;5092334;27;64263;-43
2023/08/18 08:52:41;;;;;;;;;26.33;19.33;;;;;44.53;25.55;101022.88;5100159;27;45417;-45
2023/08/18 08:55:07;;;;;;;;;26.67;24.67;;;;;42.93;27.32;101021.59;5085922;27;62430;-48
2023/08/18 08:57:34;;;;;;;;;23.33;22.33;;;;;41.37;29.07;101010.28;5077369;27;45326;-46
2023/08/18 08:59:59;;;;;;;;;20.67;19.33;;;;;40.19;30.06;101014.41;5082768;27;45430;-45
2023/08/18 09:02:25;;;;;;;;;19.33;18.67;;;;;39.25;31.32;101006.47;5091825;27;45905;-46
2023/08/18 09:04:50;;;;;;;;;23.33;20.00;;;;;39.09;32.24;100999.06;5092120;27;45457;-44
2023/08/18 09:07:16;;;;;;;;;23.00;21.33;;;;;40.50;31.83;100998.66;5097052;27;63882;-45
2023/08/18 09:09:42;;;;;;;;;22.33;21.67;;;;;42.45;29.30;100996.13;5087967;27;45307;-46
2023/08/18 09:12:08;;;;;;;;;19.33;19.00;;;;;43.72;28.09;100995.53;5086736;27;46360;-45
2023/08/18 09:14:34;;;;;;;;;17.67;17.67;;;;;43.94;26.66;100988.59;5093719;27;45380;-44
2023/08/18 09:17:00;;;;;;;;;19.67;19.33;;;;;44.74;26.86;100998.22;5091831;27;45380;-44
2023/08/18 09:19:25;;;;;;;;;28.00;23.00;;;;;46.29;25.71;100998.34;5087795;27;45376;-45
2023/08/18 09:21:51;;;;;;;;;18.33;16.33;;;;;46.64;24.02;100997.81;5069462;27;46436;-44
2023/08/18 09:24:19;;;;;;;;;20.33;19.67;;;;;45.49;24.72;100986.34;5100364;27;53667;-44
2023/08/18 09:26:45;;;;;;;;;18.33;17.00;;;;;44.54;25.92;100981.69;5070990;27;45793;-45
2023/08/18 09:29:10;;;;;;;;;18.33;15.33;;;;;43.70;27.42;100980.16;5085939;27;66923;-44
2023/08/18 09:31:35;;;;;;;;;18.00;17.00;;;;;43.42;26.71;100977.06;5097429;27;45408;-45
2023/08/18 09:34:02;;;;;;;;;22.67;19.33;;;;;43.68;27.23;100972.06;5089383;27;48438;-44
2023/08/18 09:36:27;;;;;;;;;19.00;19.00;;;;;43.90;26.53;100970.66;5093565;27;45413;-44
2023/08/18 09:38:53;;;;;;;;;20.67;18.33;;;;;43.65;26.58;100972.63;5077373;27;45659;-46
2023/08/18 09:41:18;;;;;;;;;17.00;15.67;;;;;42.95;27.21;100976.59;5086544;27;46025;-44
2023/08/18 09:43:43;;;;;;;;;19.00;17.67;;;;;42.09;27.82;100980.34;5093359;27;45923;-44
2023/08/18 09:46:13;;;;;;;;;21.67;21.67;;;;;40.92;28.88;100970.94;5094449;27;45413;-46
2023/08/18 09:48:39;;;;;;;;;19.67;17.00;;;;;39.79;30.03;100962.94;5092680;27;45360;-46
2023/08/18 09:51:09;;;;;;;;;20.67;17.67;;;;;38.89;30.82;100964.41;5084561;27;45492;-44
2023/08/18 09:53:35;;;;;;;;;20.00;18.00;;;;;38.26;32.23;100963.97;5087377;27;45321;-49
2023/08/18 09:56:10;;;;;;;;;17.33;15.67;;;;;38.29;32.73;100957.88;5077523;27;45331;-45
2023/08/18 09:58:48;;;;;;;;;22.67;16.67;;;;;39.38;32.37;100958.75;5051320;27;45370;-46
2023/08/18 10:01:15;;;;;;;;;22.67;21.67;;;;;40.14;31.04;100961.47;5090141;27;45374;-44
2023/08/18 10:03:41;;;;;;;;;20.33;20.33;;;;;40.33;31.12;100956.28;5095887;27;45417;-47
2023/08/18 10:06:07;;;;;;;;;18.00;17.00;;;;;40.93;30.59;100947.53;5068248;28;45478;-47
2023/08/18 10:08:34;;;;;;;;;17.33;17.33;;;;;41.58;29.36;100945.00;5084520;27;45408;-47
2023/08/18 10:11:01;;;;;;;;;20.33;17.33;;;;;41.88;28.90;100950.81;5087818;27;45611;-46
2023/08/18 10:13:29;;;;;;;;;18.67;16.67;;;;;41.27;28.42;100949.78;5069513;28;45516;-44
2023/08/18 10:15:55;;;;;;;;;17.50;17.50;;;;;40.66;29.69;100949.41;5086166;27;45451;-44
2023/08/18 10:18:21;;;;;;;;;19.33;17.00;;;;;39.78;30.57;100944.56;5068815;27;68353;-44
2023/08/18 10:20:51;;;;;;;;;17.00;16.00;;;;;39.13;31.64;100947.41;5058054;27;47628;-44
2023/08/18 10:23:17;;;;;;;;;17.67;16.33;;;;;38.95;31.55;100943.91;5069412;27;45521;-44
2023/08/18 10:25:49;;;;;;;;;17.00;15.00;;;;;38.39;32.03;100939.41;5085659;27;45432;-44
2023/08/18 10:28:19;;;;;;;;;17.00;16.33;;;;;37.76;32.74;100936.06;5086070;27;45501;-44
2023/08/18 10:31:04;;;;;;;;;18.00;16.00;;;;;37.14;33.35;100920.38;5096899;27;45409;-44
2023/08/18 10:33:44;;;;;;;;;17.00;15.50;;;;;36.62;34.48;100933.28;5091241;27;45375;-45
2023/08/18 10:36:14;;;;;;;;;17.25;16.00;;;;;36.26;35.19;100940.84;5092862;27;45410;-47
2023/08/18 10:38:40;;;;;;;;;17.67;15.67;;;;;36.01;35.70;100939.22;5089609;27;45557;-43
2023/08/18 10:41:05;;;;;;;;;16.67;16.00;;;;;35.92;35.97;100937.94;5085312;27;46033;-44
2023/08/18 10:43:41;;;;;;;;;16.67;15.67;;;;;35.92;36.73;100937.94;5083895;27;54932;-44
2023/08/18 10:46:11;;;;;;;;;17.00;16.67;;;;;35.92;36.27;100936.00;5096511;27;45711;-46
2023/08/18 10:48:36;;;;;;;;;22.00;20.33;;;;;35.98;35.97;100936.94;5066778;27;45470;-44
2023/08/18 10:51:02;;;;;;;;;16.00;16.00;;;;;36.03;36.13;100937.03;5090714;27;75032;-44
2023/08/18 10:53:37;;;;;;;;;17.00;16.67;;;;;35.98;36.52;100934.16;5092113;27;45430;-45
2023/08/18 10:56:05;;;;;;;;;11.50;11.50;;;;;35.81;36.60;100941.50;5092459;27;45659;-45
2023/08/18 10:58:32;;;;;;;;;17.00;17.00;;;;;35.61;36.82;100942.72;5098731;27;45407;-45
2023/08/18 11:00:58;;;;;;;;;17.25;14.25;;;;;35.43;37.10;100946.44;5081506;27;46319;-44
2023/08/18 11:03:25;;;;;;;;;14.33;13.33;;;;;35.17;37.63;100933.88;5075460;27;45418;-45